Terminal Aerodrome Forecast
Issued by NWS

Home | Current Version | Previous Version | Text Only | Print | Product List | Glossary On
Versions: 1 2 3 4 5 6 7 8 9 10 11 12 13 14 15 16 17 18 19
000
FTUS41 KBGM 270758 AAA
TAFELM
TAF AMD
KELM 270758Z 2708/2806 VRB03KT P6SM BKN200
     FM271400 23008KT P6SM -SHRA BKN040 OVC070
     FM271900 24007KT P6SM BKN050
     FM280100 24005KT P6SM BKN200=

USA.gov is the U.S. government's official web portal to all federal, state and local government web resources and services.